オークランド の空港の天気 - METARとTAF

オークランド国際空港 ( NZAA / AKL ) - ニュージーランド オークランド|オークランド
飛行場実況気象(Metar)
観測時間08/15 07:30 NZST (08/14 19:30 UTC)
風向・風速南南東 3m/s
視程10km以上
天気現象
全天の8割程度の雲 雲底高度 2130m
気温6℃
湿度87%
気圧1026hPa
METARNZAA 141930Z AUTO 16006KT 9999 BKN070/// 06/04 Q1026 NOSIG
過去の天気等 Google飛行場航空写真 Wunderground天気予報

過去48時間のMETAR

飛行場予報(TAF)
発表時間: 8/15 05:23 NZST (8/14 17:23 UTC)
予報対象時間: 15日6時 NZST ~ 16日6時 NZST
風向・風速南東 3m/s
視程10km以上
少しの雲 雲底高度 1520m
15日12時 NZST から
風向・風速西南西 5m/s
視程10km以上
なし
15日19時 NZST ~ 15日21時 NZST に徐々に
風向・風速南東 3m/s
TAF NZAA 141723Z 1418/1518 13005KT 9999 FEW050
FM150000 24010KT CAVOK
BECMG 1507/1509 14005KT